createdAt,value
2022-10-05T00:00:57.582Z,11.73
2022-10-05T00:01:57.644Z,11.78
2022-10-05T00:02:57.603Z,11.75
2022-10-05T00:03:57.679Z,11.82
2022-10-05T00:04:57.665Z,11.86
2022-10-05T00:05:57.642Z,11.90
2022-10-05T00:06:57.657Z,11.91
2022-10-05T00:07:57.673Z,11.88
2022-10-05T00:08:57.690Z,11.90
2022-10-05T00:09:57.699Z,11.96
2022-10-05T00:10:57.709Z,11.98
2022-10-05T00:11:57.724Z,11.91
2022-10-05T00:12:57.739Z,11.95
2022-10-05T00:13:57.752Z,11.90
2022-10-05T00:14:57.794Z,11.85
2022-10-05T00:15:57.788Z,11.90
2022-10-05T00:16:57.877Z,11.83
2022-10-05T00:17:57.808Z,11.85
2022-10-05T00:18:57.821Z,11.80
2022-10-05T00:19:57.846Z,11.88
2022-10-05T00:20:57.851Z,11.83
2022-10-05T00:21:57.868Z,11.86
2022-10-05T00:22:57.879Z,11.90
2022-10-05T00:23:57.907Z,11.85
2022-10-05T00:24:57.909Z,11.91
2022-10-05T00:25:57.935Z,11.85
2022-10-05T00:26:58.457Z,11.85
2022-10-05T00:27:58.062Z,11.83
2022-10-05T00:28:57.964Z,11.85
2022-10-05T00:29:57.983Z,11.91
2022-10-05T00:30:58.015Z,11.86
2022-10-05T00:31:58.033Z,11.85
2022-10-05T00:32:59.771Z,11.86
2022-10-05T00:33:58.031Z,11.96
2022-10-05T00:34:58.046Z,11.91
2022-10-05T00:35:58.061Z,11.85
2022-10-05T00:36:58.073Z,11.98
2022-10-05T00:37:58.086Z,11.96
2022-10-05T00:38:58.100Z,11.95
2022-10-05T00:39:58.115Z,11.95
2022-10-05T00:40:58.126Z,11.91
2022-10-05T00:41:58.143Z,12.01
2022-10-05T00:42:58.158Z,11.91
2022-10-05T00:43:58.167Z,11.98
2022-10-05T00:44:58.182Z,11.95
2022-10-05T00:45:58.244Z,11.88
2022-10-05T00:46:58.234Z,11.98
2022-10-05T00:47:58.221Z,11.91
2022-10-05T00:48:58.252Z,11.91
2022-10-05T00:49:58.253Z,11.83
2022-10-05T00:50:58.264Z,11.85
2022-10-05T00:51:58.281Z,11.85
2022-10-05T00:52:58.294Z,11.85
2022-10-05T00:53:58.311Z,11.85
2022-10-05T00:54:58.320Z,11.83
2022-10-05T00:55:58.335Z,11.83
2022-10-05T00:56:58.349Z,11.83
2022-10-05T00:57:58.363Z,11.75
2022-10-05T00:58:58.380Z,11.85
2022-10-05T00:59:58.388Z,11.73
2022-10-05T01:00:58.470Z,11.76
2022-10-05T01:01:58.449Z,11.75
2022-10-05T01:02:58.458Z,11.73
2022-10-05T01:03:58.458Z,11.75
2022-10-05T01:04:58.460Z,11.73
2022-10-05T01:05:58.472Z,11.75
2022-10-05T01:06:58.486Z,11.70
2022-10-05T01:07:58.502Z,11.79
2022-10-05T01:08:58.517Z,11.67
2022-10-05T01:09:58.529Z,11.75
2022-10-05T01:10:58.540Z,11.64
2022-10-05T01:11:58.557Z,11.67
2022-10-05T01:12:58.571Z,11.69
2022-10-05T01:13:58.582Z,11.72
2022-10-05T01:14:58.597Z,11.64
2022-10-05T01:15:58.617Z,11.62
2022-10-05T01:16:58.663Z,11.61
2022-10-05T01:17:58.637Z,11.57
2022-10-05T01:18:58.676Z,11.62
2022-10-05T01:19:58.667Z,11.57
2022-10-05T01:20:58.684Z,11.54
2022-10-05T01:21:58.699Z,11.52
2022-10-05T01:22:58.709Z,11.47
2022-10-05T01:23:58.720Z,11.58
2022-10-05T01:24:58.736Z,11.57
2022-10-05T01:25:58.752Z,11.55
2022-10-05T01:26:58.763Z,11.58
2022-10-05T01:27:58.815Z,11.54
2022-10-05T01:28:58.802Z,11.47
2022-10-05T01:29:58.806Z,11.58
2022-10-05T01:30:58.815Z,11.49
2022-10-05T01:31:58.911Z,11.51
2022-10-05T01:32:58.946Z,11.57
2022-10-05T01:33:58.857Z,11.49
2022-10-05T01:34:58.901Z,11.51
2022-10-05T01:35:58.889Z,11.52
2022-10-05T01:36:58.898Z,11.51
2022-10-05T01:37:58.925Z,11.49
2022-10-05T01:38:58.926Z,11.51
2022-10-05T01:39:58.946Z,11.54
2022-10-05T01:40:58.953Z,11.49
2022-10-05T01:41:58.965Z,11.49
2022-10-05T01:42:58.983Z,11.52
2022-10-05T01:43:58.994Z,11.44
2022-10-05T01:44:59.013Z,11.39
2022-10-05T01:45:59.142Z,11.42
2022-10-05T01:46:59.042Z,11.42
2022-10-05T01:47:59.048Z,11.42
2022-10-05T01:48:59.197Z,11.43
2022-10-05T01:49:59.075Z,11.43
2022-10-05T01:50:59.187Z,11.35
2022-10-05T01:51:59.102Z,11.42
2022-10-05T01:52:59.127Z,11.44
2022-10-05T01:53:59.130Z,11.46
2022-10-05T01:54:59.147Z,11.44
2022-10-05T01:55:59.159Z,11.49
2022-10-05T01:56:59.173Z,11.52
2022-10-05T01:57:59.184Z,11.54
2022-10-05T01:58:59.201Z,11.52
2022-10-05T01:59:59.236Z,11.55
2022-10-05T02:00:59.313Z,11.55
2022-10-05T02:01:59.310Z,11.47
2022-10-05T02:02:59.255Z,11.52
2022-10-05T02:03:59.265Z,11.57
2022-10-05T02:05:02.265Z,11.62
2022-10-05T02:05:59.292Z,11.49
2022-10-05T02:06:59.332Z,11.54
2022-10-05T02:07:59.322Z,11.60
2022-10-05T02:08:59.337Z,11.57
2022-10-05T02:09:59.349Z,11.54
2022-10-05T02:10:59.367Z,11.52
2022-10-05T02:11:59.380Z,11.44
2022-10-05T02:12:59.388Z,11.47
2022-10-05T02:13:59.397Z,11.39
2022-10-05T02:14:59.415Z,11.40
2022-10-05T02:15:59.475Z,11.43
2022-10-05T02:16:59.445Z,11.39
2022-10-05T02:17:59.454Z,11.37
2022-10-05T02:18:59.474Z,11.36
2022-10-05T02:19:59.482Z,11.36
2022-10-05T02:20:59.499Z,11.21
2022-10-05T02:21:59.608Z,11.24
2022-10-05T02:22:59.550Z,11.27
2022-10-05T02:23:59.544Z,11.27
2022-10-05T02:24:59.551Z,11.25
2022-10-05T02:25:59.569Z,11.24
2022-10-05T02:26:59.574Z,11.39
2022-10-05T02:27:59.628Z,11.33
2022-10-05T02:28:59.610Z,11.40
2022-10-05T02:29:59.619Z,11.42
2022-10-05T02:30:59.629Z,11.36
2022-10-05T02:31:59.646Z,11.37
2022-10-05T02:32:59.656Z,11.37
2022-10-05T02:33:59.672Z,11.43
2022-10-05T02:34:59.684Z,11.43
2022-10-05T02:35:59.700Z,11.43
2022-10-05T02:36:59.709Z,11.37
2022-10-05T02:37:59.823Z,11.36
2022-10-05T02:38:59.764Z,11.36
2022-10-05T02:39:59.750Z,11.29
2022-10-05T02:40:59.769Z,11.29
2022-10-05T02:41:59.780Z,11.27
2022-10-05T02:42:59.791Z,11.37
2022-10-05T02:43:59.806Z,11.25
2022-10-05T02:44:59.821Z,11.19
2022-10-05T02:45:59.862Z,11.11
2022-10-05T02:46:59.845Z,11.17
2022-10-05T02:47:59.863Z,11.15
2022-10-05T02:48:59.878Z,11.15
2022-10-05T02:49:59.885Z,11.14
2022-10-05T02:50:59.902Z,11.17
2022-10-05T02:51:59.914Z,11.10
2022-10-05T02:52:59.931Z,11.17
2022-10-05T02:53:59.942Z,11.14
2022-10-05T02:54:59.986Z,11.17
2022-10-05T02:55:59.969Z,11.09
2022-10-05T02:56:59.983Z,11.11
2022-10-05T02:58:00.006Z,11.14
2022-10-05T02:59:00.004Z,11.09
2022-10-05T03:00:00.021Z,11.11
2022-10-05T03:01:00.107Z,11.18
2022-10-05T03:02:00.173Z,11.17
2022-10-05T03:03:00.062Z,11.17
2022-10-05T03:04:00.083Z,11.14
2022-10-05T03:05:00.143Z,11.15
2022-10-05T03:06:00.107Z,11.14
2022-10-05T03:07:00.113Z,11.15
2022-10-05T03:08:00.125Z,11.17
2022-10-05T03:09:00.148Z,11.18
2022-10-05T03:10:01.205Z,11.15
2022-10-05T03:11:00.194Z,11.15
2022-10-05T03:12:00.183Z,11.11
2022-10-05T03:13:00.193Z,11.14
2022-10-05T03:14:00.224Z,11.15
2022-10-05T03:15:00.234Z,11.17
2022-10-05T03:16:00.319Z,11.10
2022-10-05T03:17:00.251Z,11.11
2022-10-05T03:18:00.261Z,11.15
2022-10-05T03:19:00.273Z,11.14
2022-10-05T03:20:00.290Z,11.06
2022-10-05T03:21:00.402Z,11.11
2022-10-05T03:22:00.330Z,11.11
2022-10-05T03:23:00.331Z,11.11
2022-10-05T03:24:00.342Z,11.06
2022-10-05T03:25:00.359Z,11.09
2022-10-05T03:26:00.468Z,11.07
2022-10-05T03:27:00.403Z,11.06
2022-10-05T03:28:00.450Z,11.04
2022-10-05T03:29:00.409Z,11.02
2022-10-05T03:30:00.429Z,11.03
2022-10-05T03:31:00.577Z,10.99
2022-10-05T03:32:00.447Z,11.06
2022-10-05T03:33:00.461Z,10.99
2022-10-05T03:34:00.471Z,11.03
2022-10-05T03:35:00.489Z,10.99
2022-10-05T03:36:00.498Z,11.02
2022-10-05T03:37:00.510Z,11.03
2022-10-05T03:38:00.527Z,10.96
2022-10-05T03:39:00.536Z,10.97
2022-10-05T03:40:00.552Z,10.94
2022-10-05T03:41:00.567Z,10.94
2022-10-05T03:42:00.580Z,10.92
2022-10-05T03:43:00.618Z,10.89
2022-10-05T03:44:00.608Z,10.84
2022-10-05T03:45:00.618Z,10.84
2022-10-05T03:46:00.711Z,10.85
2022-10-05T03:47:00.645Z,10.86
2022-10-05T03:48:01.578Z,10.74
2022-10-05T03:49:00.675Z,10.71
2022-10-05T03:50:00.685Z,10.84
2022-10-05T03:51:00.709Z,10.74
2022-10-05T03:52:00.714Z,10.78
2022-10-05T03:53:00.733Z,10.70
2022-10-05T03:54:00.733Z,10.70
2022-10-05T03:55:00.755Z,10.67
2022-10-05T03:56:03.069Z,10.70
2022-10-05T03:57:00.782Z,10.68
2022-10-05T03:58:00.796Z,10.66
2022-10-05T03:59:00.943Z,10.60
2022-10-05T04:00:00.823Z,10.67
2022-10-05T04:01:00.832Z,10.66
2022-10-05T04:02:00.926Z,10.70
2022-10-05T04:03:00.957Z,10.73
2022-10-05T04:04:00.880Z,10.74
2022-10-05T04:05:00.886Z,10.71
2022-10-05T04:06:00.901Z,10.82
2022-10-05T04:07:00.913Z,10.82
2022-10-05T04:08:00.922Z,10.89
2022-10-05T04:09:00.937Z,10.92
2022-10-05T04:10:00.958Z,10.88
2022-10-05T04:11:00.961Z,10.91
2022-10-05T04:12:00.969Z,10.89
2022-10-05T04:13:01.011Z,11.07
2022-10-05T04:14:00.996Z,11.02
2022-10-05T04:15:01.036Z,10.99
2022-10-05T04:16:01.116Z,11.02
2022-10-05T04:17:01.037Z,11.06
2022-10-05T04:18:01.054Z,11.04
2022-10-05T04:19:01.064Z,11.04
2022-10-05T04:20:01.076Z,11.02
2022-10-05T04:21:01.092Z,11.02
2022-10-05T04:22:01.102Z,11.06
2022-10-05T04:23:01.113Z,10.99
2022-10-05T04:24:01.126Z,10.99
2022-10-05T04:25:01.139Z,10.94
2022-10-05T04:26:01.153Z,10.97
2022-10-05T04:27:01.169Z,10.89
2022-10-05T04:28:01.269Z,10.84
2022-10-05T04:29:01.195Z,10.89
2022-10-05T04:30:01.204Z,10.86
2022-10-05T04:31:01.325Z,10.92
2022-10-05T04:32:01.228Z,10.86
2022-10-05T04:33:01.249Z,10.84
2022-10-05T04:34:01.272Z,10.88
2022-10-05T04:35:01.270Z,10.76
2022-10-05T04:36:01.287Z,10.76
2022-10-05T04:37:01.310Z,10.84
2022-10-05T04:38:01.310Z,10.81
2022-10-05T04:39:01.321Z,10.79
2022-10-05T04:40:01.334Z,10.79
2022-10-05T04:41:01.348Z,10.78
2022-10-05T04:42:01.360Z,10.78
2022-10-05T04:43:01.378Z,10.76
2022-10-05T04:44:01.392Z,10.67
2022-10-05T04:45:01.405Z,10.68
2022-10-05T04:46:01.412Z,10.63
2022-10-05T04:47:01.524Z,10.63
2022-10-05T04:48:01.438Z,10.67
2022-10-05T04:49:01.455Z,10.70
2022-10-05T04:50:01.463Z,10.71
2022-10-05T04:51:01.474Z,10.64
2022-10-05T04:52:01.488Z,10.68
2022-10-05T04:53:01.505Z,10.64
2022-10-05T04:54:01.516Z,10.64
2022-10-05T04:55:01.530Z,10.68
2022-10-05T04:56:01.544Z,10.71
2022-10-05T04:57:01.562Z,10.60
2022-10-05T04:58:01.577Z,10.68
2022-10-05T04:59:01.584Z,10.60
2022-10-05T05:00:01.616Z,10.70
2022-10-05T05:01:01.674Z,10.64
2022-10-05T05:02:01.621Z,10.68
2022-10-05T05:03:01.659Z,10.64
2022-10-05T05:04:01.746Z,10.71
2022-10-05T05:05:01.658Z,10.78
2022-10-05T05:06:18.199Z,10.76
2022-10-05T05:07:01.688Z,10.74
2022-10-05T05:08:01.701Z,10.81
2022-10-05T05:09:01.710Z,10.86
2022-10-05T05:10:01.725Z,10.79
2022-10-05T05:11:01.739Z,10.74
2022-10-05T05:12:01.754Z,10.81
2022-10-05T05:13:01.763Z,10.70
2022-10-05T05:14:01.777Z,10.74
2022-10-05T05:15:01.797Z,10.81
2022-10-05T05:16:01.876Z,10.74
2022-10-05T05:17:01.815Z,10.81
2022-10-05T05:18:01.828Z,10.74
2022-10-05T05:19:01.870Z,10.78
2022-10-05T05:20:01.860Z,10.79
2022-10-05T05:21:01.875Z,10.81
2022-10-05T05:22:01.882Z,10.73
2022-10-05T05:23:01.894Z,10.78
2022-10-05T05:24:01.903Z,10.78
2022-10-05T05:25:01.917Z,10.78
2022-10-05T05:26:01.927Z,10.82
2022-10-05T05:27:01.950Z,10.79
2022-10-05T05:28:02.054Z,10.78
2022-10-05T05:29:01.973Z,10.81
2022-10-05T05:30:01.989Z,10.78
2022-10-05T05:31:02.101Z,10.74
2022-10-05T05:32:02.013Z,10.82
2022-10-05T05:33:02.022Z,10.76
2022-10-05T05:34:02.036Z,10.78
2022-10-05T05:35:02.070Z,10.76
2022-10-05T05:36:02.066Z,10.81
2022-10-05T05:37:02.075Z,10.85
2022-10-05T05:38:02.084Z,10.79
2022-10-05T05:39:02.099Z,10.74
2022-10-05T05:40:02.111Z,10.71
2022-10-05T05:41:02.127Z,10.74
2022-10-05T05:42:02.139Z,10.79
2022-10-05T05:43:02.151Z,10.76
2022-10-05T05:44:02.182Z,10.76
2022-10-05T05:45:02.178Z,10.73
2022-10-05T05:46:02.188Z,10.71
2022-10-05T05:47:04.528Z,10.68
2022-10-05T05:48:02.218Z,10.66
2022-10-05T05:49:02.230Z,10.64
2022-10-05T05:50:06.930Z,10.64
2022-10-05T05:51:02.312Z,10.64
2022-10-05T05:52:02.273Z,10.73
2022-10-05T05:53:02.279Z,10.63
2022-10-05T05:54:02.296Z,10.64
2022-10-05T05:55:02.308Z,10.63
2022-10-05T05:56:02.320Z,10.64
2022-10-05T05:57:02.337Z,10.73
2022-10-05T05:58:02.351Z,10.66
2022-10-05T05:59:02.365Z,10.64
2022-10-05T06:00:02.375Z,10.63
2022-10-05T06:01:02.393Z,10.67
2022-10-05T06:02:02.505Z,10.63
2022-10-05T06:03:02.591Z,10.64
2022-10-05T06:04:02.426Z,10.66
2022-10-05T06:05:02.438Z,10.64
2022-10-05T06:06:02.445Z,10.67
2022-10-05T06:07:02.552Z,10.68
2022-10-05T06:08:02.477Z,10.68
2022-10-05T06:09:02.493Z,10.66
2022-10-05T06:10:02.508Z,10.68
2022-10-05T06:11:02.515Z,10.67
2022-10-05T06:12:02.524Z,10.74
2022-10-05T06:13:02.539Z,10.78
2022-10-05T06:14:02.571Z,10.78
2022-10-05T06:15:02.569Z,10.81
2022-10-05T06:16:02.641Z,10.79
2022-10-05T06:17:02.612Z,10.86
2022-10-05T06:18:02.606Z,10.82
2022-10-05T06:19:02.622Z,10.82
2022-10-05T06:20:05.438Z,10.81
2022-10-05T06:21:02.659Z,10.78
2022-10-05T06:22:02.657Z,10.74
2022-10-05T06:23:03.169Z,10.81
2022-10-05T06:24:02.685Z,10.79
2022-10-05T06:25:02.693Z,10.78
2022-10-05T06:26:04.997Z,10.78
2022-10-05T06:27:02.720Z,10.81
2022-10-05T06:28:02.808Z,10.82
2022-10-05T06:29:02.753Z,10.85
2022-10-05T06:30:02.761Z,10.94
2022-10-05T06:31:02.771Z,10.81
2022-10-05T06:32:02.847Z,10.91
2022-10-05T06:33:02.795Z,10.89
2022-10-05T06:34:02.813Z,10.91
2022-10-05T06:35:02.828Z,10.94
2022-10-05T06:36:02.831Z,10.92
2022-10-05T06:37:02.848Z,10.86
2022-10-05T06:38:02.975Z,10.91
2022-10-05T06:39:02.909Z,10.94
2022-10-05T06:40:02.892Z,10.97
2022-10-05T06:41:02.902Z,11.04
2022-10-05T06:42:02.914Z,10.97
2022-10-05T06:43:02.923Z,11.04
2022-10-05T06:44:02.941Z,11.09
2022-10-05T06:45:02.962Z,11.06
2022-10-05T06:46:03.053Z,11.02
2022-10-05T06:47:02.978Z,11.02
2022-10-05T06:48:05.572Z,11.03
2022-10-05T06:49:03.013Z,11.03
2022-10-05T06:50:03.016Z,11.02
2022-10-05T06:51:03.023Z,11.04
2022-10-05T06:52:03.042Z,11.06
2022-10-05T06:53:03.055Z,11.17
2022-10-05T06:54:03.066Z,11.15
2022-10-05T06:55:03.128Z,11.21
2022-10-05T06:56:03.091Z,11.18
2022-10-05T06:57:03.106Z,11.17
2022-10-05T06:58:03.119Z,11.19
2022-10-05T06:59:03.136Z,11.11
2022-10-05T07:00:03.144Z,11.14
2022-10-05T07:01:03.207Z,11.17
2022-10-05T07:02:03.231Z,11.15
2022-10-05T07:03:03.200Z,11.36
2022-10-05T07:04:03.197Z,11.28
2022-10-05T07:05:03.228Z,11.33
2022-10-05T07:06:03.221Z,11.42
2022-10-05T07:07:03.234Z,11.39
2022-10-05T07:08:03.245Z,11.43
2022-10-05T07:09:03.271Z,11.51
2022-10-05T07:10:03.271Z,11.51
2022-10-05T07:11:03.426Z,11.55
2022-10-05T07:12:05.435Z,11.49
2022-10-05T07:13:03.314Z,11.55
2022-10-05T07:14:03.329Z,11.47
2022-10-05T07:15:03.355Z,11.57
2022-10-05T07:16:03.464Z,11.69
2022-10-05T07:17:03.373Z,11.73
2022-10-05T07:18:03.375Z,11.86
2022-10-05T07:19:03.391Z,11.94
2022-10-05T07:20:03.417Z,12.16
2022-10-05T07:21:03.416Z,12.49
2022-10-05T07:22:03.484Z,12.67
2022-10-05T07:23:03.542Z,12.96
2022-10-05T07:24:03.458Z,13.12
2022-10-05T07:25:03.473Z,13.38
2022-10-05T07:26:03.483Z,13.71
2022-10-05T07:27:03.531Z,13.88
2022-10-05T07:28:03.566Z,14.02
2022-10-05T07:29:03.526Z,13.99
2022-10-05T07:30:03.541Z,14.09
2022-10-05T07:31:03.635Z,14.18
2022-10-05T07:32:03.562Z,14.21
2022-10-05T07:33:03.579Z,14.27
2022-10-05T07:34:03.591Z,14.21
2022-10-05T07:35:03.609Z,14.21
2022-10-05T07:36:03.619Z,14.09
2022-10-05T07:37:03.642Z,14.20
2022-10-05T07:38:03.646Z,14.06
2022-10-05T07:39:03.661Z,14.04
2022-10-05T07:40:03.775Z,14.03
2022-10-05T07:41:03.689Z,14.17
2022-10-05T07:42:03.703Z,14.20
2022-10-05T07:43:03.866Z,14.25
2022-10-05T07:44:05.030Z,14.35
2022-10-05T07:45:03.744Z,14.43
2022-10-05T07:46:03.880Z,14.46
2022-10-05T07:47:03.776Z,14.57
2022-10-05T07:48:03.787Z,14.60
2022-10-05T07:49:03.801Z,14.61
2022-10-05T07:50:03.814Z,14.73
2022-10-05T07:51:03.829Z,14.75
2022-10-05T07:52:03.843Z,14.83
2022-10-05T07:53:03.855Z,14.89
2022-10-05T07:54:03.878Z,14.88
2022-10-05T07:55:03.888Z,14.95
2022-10-05T07:56:03.901Z,15.23
2022-10-05T07:57:03.917Z,15.36
2022-10-05T07:58:03.929Z,15.41
2022-10-05T07:59:04.019Z,15.41
2022-10-05T08:00:03.957Z,15.34
2022-10-05T08:01:03.979Z,15.43
2022-10-05T08:02:04.136Z,15.46
2022-10-05T08:03:04.044Z,15.44
2022-10-05T08:04:04.012Z,15.43
2022-10-05T08:05:04.031Z,15.39
2022-10-05T08:06:04.042Z,15.25
2022-10-05T08:07:04.058Z,15.36
2022-10-05T08:08:04.081Z,15.43
2022-10-05T08:09:04.095Z,15.39
2022-10-05T08:10:04.199Z,15.44
2022-10-05T08:11:04.129Z,15.46
2022-10-05T08:12:04.142Z,15.54
2022-10-05T08:13:04.147Z,15.60
2022-10-05T08:14:04.162Z,15.57
2022-10-05T08:15:04.229Z,15.72
2022-10-05T08:16:04.260Z,15.78
2022-10-05T08:17:04.203Z,15.83
2022-10-05T08:18:04.223Z,15.75
2022-10-05T08:19:04.236Z,15.84
2022-10-05T08:20:04.251Z,16.02
2022-10-05T08:21:04.266Z,16.11
2022-10-05T08:22:04.282Z,16.23
2022-10-05T08:23:04.305Z,16.01
2022-10-05T08:24:04.310Z,15.94
2022-10-05T08:25:04.330Z,16.04
2022-10-05T08:26:04.339Z,16.01
2022-10-05T08:27:04.356Z,15.94
2022-10-05T08:28:04.429Z,16.00
2022-10-05T08:29:04.387Z,16.02
2022-10-05T08:30:04.399Z,16.20
2022-10-05T08:31:04.520Z,16.17
2022-10-05T08:32:04.431Z,16.21
2022-10-05T08:33:04.447Z,16.23
2022-10-05T08:34:04.462Z,16.24
2022-10-05T08:35:04.479Z,16.23
2022-10-05T08:36:04.490Z,16.11
2022-10-05T08:37:04.507Z,16.08
2022-10-05T08:38:04.522Z,15.94
2022-10-05T08:39:04.536Z,16.15
2022-10-05T08:40:04.556Z,16.08
2022-10-05T08:41:04.566Z,16.09
2022-10-05T08:42:04.580Z,16.20
2022-10-05T08:43:04.598Z,16.30
2022-10-05T08:44:04.612Z,16.49
2022-10-05T08:45:04.633Z,16.48
2022-10-05T08:46:04.696Z,16.50
2022-10-05T08:47:04.709Z,16.58
2022-10-05T08:48:04.673Z,16.70
2022-10-05T08:49:04.692Z,16.82
2022-10-05T08:50:04.709Z,17.11
2022-10-05T08:51:04.724Z,17.40
2022-10-05T08:52:04.749Z,17.28
2022-10-05T08:53:04.755Z,17.31
2022-10-05T08:54:04.873Z,17.55
2022-10-05T08:55:04.783Z,17.68
2022-10-05T08:56:04.805Z,17.77
2022-10-05T08:57:04.819Z,17.72
2022-10-05T08:58:04.833Z,17.81
2022-10-05T08:59:04.850Z,17.90
2022-10-05T09:00:04.866Z,17.72
2022-10-05T09:01:04.967Z,17.56
2022-10-05T09:02:05.004Z,17.51
2022-10-05T09:03:04.947Z,17.54
2022-10-05T09:04:04.930Z,17.40
2022-10-05T09:05:04.948Z,17.46
2022-10-05T09:06:04.968Z,17.55
2022-10-05T09:07:04.975Z,17.52
2022-10-05T09:08:04.997Z,17.77
2022-10-05T09:09:05.011Z,17.71
2022-10-05T09:10:05.023Z,17.63
2022-10-05T09:11:05.042Z,17.52
2022-10-05T09:12:05.061Z,17.51
2022-10-05T09:13:05.078Z,17.64
2022-10-05T09:14:05.100Z,17.77
2022-10-05T09:15:24.786Z,17.97
2022-10-05T09:16:05.183Z,18.00
2022-10-05T09:17:05.140Z,17.64
2022-10-05T09:18:05.157Z,17.77
2022-10-05T09:19:05.242Z,17.77
2022-10-05T09:20:05.191Z,17.81
2022-10-05T09:21:05.225Z,18.15
2022-10-05T09:22:05.223Z,18.02
2022-10-05T09:23:05.237Z,18.23
2022-10-05T09:24:05.257Z,18.26
2022-10-05T09:25:05.278Z,18.42
2022-10-05T09:26:05.295Z,18.63
2022-10-05T09:27:05.408Z,18.85
2022-10-05T09:28:05.403Z,19.08
2022-10-05T09:29:05.351Z,19.16
2022-10-05T09:30:05.367Z,19.16
2022-10-05T09:31:05.454Z,19.25
2022-10-05T09:32:05.396Z,19.40
2022-10-05T09:33:05.412Z,19.29
2022-10-05T09:34:05.431Z,18.82
2022-10-05T09:35:05.472Z,18.76
2022-10-05T09:36:05.469Z,18.92
2022-10-05T09:37:05.480Z,19.19
2022-10-05T09:38:05.495Z,19.39
2022-10-05T09:39:05.514Z,19.73
2022-10-05T09:40:05.533Z,19.84
2022-10-05T09:41:05.549Z,19.86
2022-10-05T09:42:05.584Z,19.55
2022-10-05T09:43:05.584Z,19.84
2022-10-05T09:44:05.601Z,19.66
2022-10-05T09:45:05.621Z,19.68
2022-10-05T09:46:05.738Z,19.62
2022-10-05T09:47:05.656Z,19.73
2022-10-05T09:48:05.679Z,19.80
2022-10-05T09:49:05.690Z,19.46
2022-10-05T09:50:05.708Z,19.77
2022-10-05T09:51:05.866Z,19.80
2022-10-05T09:52:05.746Z,19.77
2022-10-05T09:53:05.765Z,19.50
2022-10-05T09:54:05.779Z,19.32
2022-10-05T09:55:05.800Z,19.08
2022-10-05T09:56:05.818Z,19.00
2022-10-05T09:57:05.836Z,19.29
2022-10-05T09:58:05.857Z,19.41
2022-10-05T09:59:05.873Z,19.39
2022-10-05T10:01:09.471Z,19.81
2022-10-05T10:02:06.019Z,19.87
2022-10-05T10:03:05.988Z,19.81
2022-10-05T10:04:05.966Z,19.69
2022-10-05T10:05:05.982Z,19.74
2022-10-05T10:06:06.003Z,18.95
2022-10-05T10:07:06.105Z,19.02
2022-10-05T10:08:06.038Z,19.41
2022-10-05T10:09:06.060Z,19.63
2022-10-05T10:10:06.074Z,19.51
2022-10-05T10:11:06.097Z,19.37
2022-10-05T10:12:06.118Z,19.28
2022-10-05T10:13:06.134Z,19.18
2022-10-05T10:14:06.151Z,19.31
2022-10-05T10:15:06.172Z,19.65
2022-10-05T10:16:06.250Z,19.54
2022-10-05T10:17:06.206Z,19.83
2022-10-05T10:18:06.225Z,19.43
2022-10-05T10:19:06.249Z,19.32
2022-10-05T10:20:06.267Z,19.54
2022-10-05T10:21:06.281Z,19.98
2022-10-05T10:22:06.302Z,20.14
2022-10-05T10:23:06.342Z,20.55
2022-10-05T10:24:06.337Z,20.18
2022-10-05T10:25:06.359Z,19.99
2022-10-05T10:26:06.388Z,19.63
2022-10-05T10:27:06.396Z,20.05
2022-10-05T10:28:06.457Z,20.36
2022-10-05T10:29:06.434Z,20.80
2022-10-05T10:30:06.459Z,20.95
2022-10-05T10:31:06.553Z,20.66
2022-10-05T10:32:06.503Z,20.95
2022-10-05T10:33:06.510Z,20.58
2022-10-05T10:34:06.534Z,20.73
2022-10-05T10:35:06.551Z,20.98
2022-10-05T10:36:07.240Z,21.06
2022-10-05T10:37:06.586Z,21.01
2022-10-05T10:38:06.621Z,20.89
2022-10-05T10:39:06.647Z,20.50
2022-10-05T10:40:06.644Z,20.92
2022-10-05T10:41:06.670Z,21.01
2022-10-05T10:42:06.695Z,20.50
2022-10-05T10:43:06.700Z,20.84
2022-10-05T10:44:06.720Z,20.98
2022-10-05T10:45:06.742Z,21.13
2022-10-05T10:46:06.815Z,21.12
2022-10-05T10:47:06.786Z,21.16
2022-10-05T10:48:06.797Z,20.94
2022-10-05T10:49:06.821Z,20.97
2022-10-05T10:50:06.911Z,21.29
2022-10-05T10:51:06.876Z,21.25
2022-10-05T10:52:06.890Z,21.47
2022-10-05T10:53:06.901Z,21.06
2022-10-05T10:54:06.921Z,21.28
2022-10-05T10:55:06.972Z,21.65
2022-10-05T10:56:06.958Z,21.58
2022-10-05T10:57:06.990Z,21.49
2022-10-05T10:58:06.995Z,21.07
2022-10-05T10:59:07.025Z,20.88
2022-10-05T11:00:07.213Z,21.09
2022-10-05T11:01:07.059Z,21.42
2022-10-05T11:02:07.152Z,21.17
2022-10-05T11:03:07.239Z,21.10
2022-10-05T11:04:07.122Z,21.37
2022-10-05T11:05:07.144Z,21.42
2022-10-05T11:06:07.156Z,21.74
2022-10-05T11:07:07.175Z,21.75
2022-10-05T11:08:07.295Z,21.69
2022-10-05T11:09:07.218Z,21.67
2022-10-05T11:10:07.238Z,21.58
2022-10-05T11:11:07.285Z,21.21
2022-10-05T11:12:07.276Z,21.07
2022-10-05T11:13:07.304Z,21.24
2022-10-05T11:14:07.317Z,21.14
2022-10-05T11:15:07.400Z,21.43
2022-10-05T11:17:07.380Z,21.54
2022-10-05T11:18:07.399Z,21.44
2022-10-05T11:19:07.416Z,21.84
2022-10-05T11:20:07.543Z,21.92
2022-10-05T11:21:07.462Z,22.07
2022-10-05T11:22:07.481Z,21.74
2022-10-05T11:23:07.499Z,21.69
2022-10-05T11:24:07.526Z,21.59
2022-10-05T11:25:07.542Z,21.35
2022-10-05T11:26:07.571Z,21.65
2022-10-05T11:27:07.619Z,21.91
2022-10-05T11:28:07.678Z,21.65
2022-10-05T11:29:07.625Z,21.52
2022-10-05T11:30:07.647Z,21.42
2022-10-05T11:31:07.690Z,21.58
2022-10-05T11:32:07.686Z,21.40
2022-10-05T11:33:07.728Z,21.92
2022-10-05T11:34:07.746Z,22.05
2022-10-05T11:35:07.747Z,22.18
2022-10-05T11:36:07.774Z,22.36
2022-10-05T11:37:07.796Z,22.14
2022-10-05T11:38:07.812Z,21.96
2022-10-05T11:39:07.831Z,21.77
2022-10-05T11:40:07.855Z,21.40
2022-10-05T11:41:07.879Z,21.24
2022-10-05T11:42:07.898Z,21.25
2022-10-05T11:43:07.981Z,21.24
2022-10-05T11:44:07.938Z,21.07
2022-10-05T11:45:08.020Z,21.35
2022-10-05T11:46:08.041Z,21.54
2022-10-05T11:47:08.009Z,21.80
2022-10-05T11:48:08.025Z,21.92
2022-10-05T11:49:08.044Z,21.69
2022-10-05T11:50:08.063Z,21.90
2022-10-05T11:51:08.086Z,21.80
2022-10-05T11:52:08.103Z,21.91
2022-10-05T11:53:08.129Z,21.58
2022-10-05T11:54:08.150Z,21.13
2022-10-05T11:55:11.441Z,21.49
2022-10-05T11:56:08.188Z,21.25
2022-10-05T11:57:08.210Z,21.47
2022-10-05T11:58:08.232Z,21.50
2022-10-05T11:59:08.331Z,21.88
2022-10-05T12:00:08.280Z,21.80
2022-10-05T12:01:08.394Z,20.98
2022-10-05T12:02:08.316Z,21.19
2022-10-05T12:03:08.435Z,21.09
2022-10-05T12:04:08.449Z,21.07
2022-10-05T12:05:08.376Z,21.14
2022-10-05T12:06:08.404Z,21.27
2022-10-05T12:07:08.420Z,21.28
2022-10-05T12:08:08.442Z,21.42
2022-10-05T12:09:08.460Z,21.31
2022-10-05T12:10:08.486Z,21.22
2022-10-05T12:11:08.501Z,21.31
2022-10-05T12:12:08.528Z,21.29
2022-10-05T12:13:08.554Z,21.24
2022-10-05T12:14:08.596Z,21.14
2022-10-05T12:15:08.623Z,20.70
2022-10-05T12:16:08.623Z,20.85
2022-10-05T12:17:08.628Z,21.22
2022-10-05T12:18:08.648Z,21.25
2022-10-05T12:19:08.668Z,21.54
2022-10-05T12:20:08.689Z,21.64
2022-10-05T12:21:08.709Z,21.79
2022-10-05T12:22:08.730Z,21.84
2022-10-05T12:23:08.847Z,22.24
2022-10-05T12:24:08.770Z,22.05
2022-10-05T12:25:08.787Z,21.58
2022-10-05T12:26:08.809Z,21.59
2022-10-05T12:27:08.831Z,22.24
2022-10-05T12:28:08.899Z,22.33
2022-10-05T12:29:08.889Z,22.65
2022-10-05T12:30:08.907Z,23.00
2022-10-05T12:31:09.078Z,23.27
2022-10-05T12:32:08.952Z,23.05
2022-10-05T12:33:08.958Z,22.91
2022-10-05T12:34:08.979Z,22.64
2022-10-05T12:35:09.001Z,22.86
2022-10-05T12:36:09.020Z,22.94
2022-10-05T12:37:09.038Z,23.27
2022-10-05T12:38:09.062Z,23.05
2022-10-05T12:39:09.133Z,23.07
2022-10-05T12:40:09.106Z,23.39
2022-10-05T12:41:09.125Z,23.75
2022-10-05T12:42:09.144Z,24.22
2022-10-05T12:43:09.166Z,23.88
2022-10-05T12:44:09.305Z,24.16
2022-10-05T12:45:09.212Z,24.27
2022-10-05T12:46:09.290Z,24.47
2022-10-05T12:47:09.284Z,24.53
2022-10-05T12:48:09.280Z,24.90
2022-10-05T12:49:09.301Z,24.83
2022-10-05T12:50:09.326Z,24.90
2022-10-05T12:51:09.343Z,24.77
2022-10-05T12:52:09.381Z,24.55
2022-10-05T12:53:09.392Z,24.46
2022-10-05T12:54:09.409Z,24.34
2022-10-05T12:55:09.438Z,24.62